Date,TemperatureHighF,TemperatureAvgF,TemperatureLowF,DewpointHighF,DewpointAvgF,DewpointLowF,HumidityHigh,HumidityAvg,HumidityLow,PressureMaxIn,PressureMinIn,WindSpeedMaxMPH,WindSpeedAvgMPH,GustSpeedMaxMPH,PrecipitationSumIn
2013-1-1,84.0,77.7,72.8,73.0,70.7,69.0,88,80,65,30.09,29.98,12,5,19,0.00
2013-1-2,86.0,76.7,67.8,71.0,67.7,64.0,91,75,50,30.06,29.97,11,4,19,0.00
2013-1-3,83.7,74.4,65.4,73.0,68.0,61.0,86,80,68,30.11,30.02,14,4,17,0.00
2013-1-4,87.3,78.4,72.2,72.0,69.6,66.0,88,75,51,30.16,30.05,15,5,19,0.00
2013-1-5,83.4,77.8,74.0,72.0,70.1,67.0,88,78,59,30.20,30.08,21,6,25,0.00
2013-1-6,84.2,77.4,70.2,71.0,69.2,67.0,91,77,59,30.14,30.03,18,5,24,0.00
2013-1-7,87.4,78.6,72.8,72.0,69.7,68.0,89,75,54,30.11,29.99,16,4,23,0.00
2013-1-8,83.8,76.6,69.4,73.0,69.4,66.0,90,79,64,30.15,30.05,15,5,28,0.00
2013-1-9,85.1,77.8,73.0,70.0,68.6,66.0,86,74,56,30.20,30.09,20,5,27,0.00
2013-1-10,82.0,75.9,70.2,73.0,68.9,66.0,91,79,63,30.18,30.08,16,5,22,0.08
2013-1-11,79.6,75.2,70.6,71.0,68.4,67.0,92,80,67,30.10,30.00,14,5,22,0.09
2013-1-12,83.0,74.7,67.5,71.0,68.7,66.0,94,82,63,30.02,29.93,16,4,20,0.01
2013-1-13,81.9,74.9,69.2,69.0,65.3,61.0,91,73,56,30.05,29.97,14,5,20,0.00
2013-1-14,80.8,73.0,65.4,69.0,64.3,62.0,89,75,55,30.08,29.99,15,4,19,0.00
2013-1-15,83.0,74.6,67.9,70.0,67.5,65.0,90,79,61,30.07,29.96,14,6,22,0.05
2013-1-16,81.1,73.9,68.4,72.0,68.1,65.0,88,82,73,30.08,29.97,16,4,17,0.00
2013-1-17,84.8,75.9,68.5,69.0,66.7,64.0,89,74,50,30.09,29.97,13,4,17,0.00
2013-1-18,83.9,76.5,70.6,73.0,69.4,66.0,87,79,60,30.10,30.01,9,3,12,0.02
2013-1-19,83.5,76.3,70.5,70.0,67.6,63.0,89,76,51,30.11,29.99,13,5,21,0.00
2013-1-20,86.0,77.0,70.3,70.0,67.9,63.0,90,75,47,30.09,29.97,14,4,20,0.00
2013-1-21,85.9,77.1,68.0,72.0,68.3,64.0,88,75,50,30.04,29.94,10,3,15,0.00
2013-1-22,86.9,77.2,68.5,74.0,68.4,63.0,90,75,47,30.07,29.99,10,3,16,0.00
2013-1-23,87.3,76.5,68.3,74.0,69.3,65.0,89,79,55,30.12,30.02,7,3,14,0.00
2013-1-24,85.3,76.2,66.9,72.0,68.2,64.0,90,77,58,30.12,29.99,10,2,14,0.00
2013-1-25,85.4,75.9,67.2,71.0,68.8,65.0,92,79,59,30.11,30.02,15,4,22,0.00
2013-1-26,85.2,76.0,73.1,72.0,70.4,69.0,89,83,63,30.11,30.04,7,3,11,0.00
2013-1-29,82.4,76.2,70.4,71.0,67.0,-99.9,91,76,65,30.14,30.04,15,-11,22,0.00
2013-1-30,86.0,76.9,70.5,70.0,67.8,66.0,90,75,52,30.10,30.01,18,6,24,0.00
2013-1-31,85.8,76.5,71.2,74.0,70.4,68.0,92,82,58,30.09,29.99,9,3,14,0.02
2013-2-1,81.8,75.1,71.5,71.0,69.6,68.0,91,83,66,30.10,30.01,11,2,18,0.09
2013-2-2,83.0,74.3,67.3,68.0,66.0,62.0,91,77,50,30.09,29.98,12,4,19,0.00
2013-2-4,85.1,78.0,68.1,69.0,66.1,63.0,87,68,49,30.04,29.92,11,3,15,0.00
2013-2-5,84.8,75.0,65.4,68.0,64.3,59.0,89,71,43,30.09,29.96,14,4,18,0.00
2013-2-6,86.1,77.2,70.9,69.0,67.0,59.0,87,72,41,30.05,29.94,14,4,21,0.00
2013-2-7,86.4,76.6,68.5,72.0,69.0,64.0,95,78,49,30.02,29.91,11,3,20,0.45
2013-2-8,83.3,74.2,69.7,73.0,70.1,67.0,95,87,64,30.03,29.93,9,2,13,0.52
2013-2-9,79.4,70.2,66.7,70.0,67.1,65.0,96,90,71,30.05,29.97,9,3,13,0.00
2013-2-10,83.5,79.1,75.3,70.0,68.5,67.0,80,71,59,30.10,30.01,16,7,27,0.00
2013-2-11,82.9,76.0,71.3,71.0,68.8,67.0,91,78,63,30.13,30.05,18,6,28,0.04
2013-2-12,83.6,77.6,70.2,67.0,64.7,61.0,79,65,48,30.11,30.03,21,7,23,0.00
2013-2-13,86.8,75.7,66.5,69.0,64.5,57.0,84,70,38,30.10,29.99,11,4,17,0.00
2013-2-14,84.8,75.1,66.4,73.0,68.3,63.0,89,80,54,30.11,30.01,9,3,13,0.13
2013-2-15,86.3,76.3,66.9,74.0,69.2,64.0,91,79,55,30.10,29.98,9,3,12,0.00
2013-2-16,87.1,75.9,66.1,73.0,67.9,62.0,90,77,49,30.05,29.95,11,3,17,0.00
2013-2-17,86.1,77.2,68.4,73.0,68.1,64.0,88,74,49,30.07,29.97,12,3,15,0.00
2013-2-18,85.0,78.0,71.3,71.0,67.1,64.0,84,70,51,30.12,30.02,19,6,23,0.00
2013-2-19,85.4,75.1,69.1,69.0,67.2,62.0,92,77,49,30.11,30.02,14,4,22,0.00
2013-2-20,87.2,77.3,71.0,71.0,68.1,65.0,85,74,49,30.08,29.93,13,4,19,0.01
2013-2-21,83.0,75.8,68.7,74.0,69.2,65.0,92,81,62,30.08,29.95,7,3,14,0.02
2013-2-22,84.5,76.6,69.1,71.0,69.0,66.0,91,78,57,30.09,29.98,14,4,19,0.00
2013-2-23,84.0,76.1,69.5,70.0,67.9,65.0,92,77,60,30.07,29.97,16,5,24,0.00
2013-2-24,84.5,75.8,67.3,71.0,68.1,64.0,89,78,59,30.06,29.93,14,4,19,0.00
2013-2-25,85.4,76.7,68.6,71.0,67.6,63.0,88,74,54,30.01,29.90,11,3,14,0.00
2013-2-26,86.7,77.0,67.6,72.0,67.8,63.0,86,74,51,30.06,29.96,12,4,13,0.00
2013-2-27,85.2,76.8,66.2,73.0,68.4,63.0,90,76,55,30.07,29.97,11,4,15,0.00
2013-2-28,84.9,77.2,68.9,71.0,68.0,64.0,89,74,49,30.03,29.93,11,3,14,0.00
2013-3-1,86.8,76.3,67.3,72.0,67.8,63.0,91,76,45,30.00,29.89,10,3,15,0.00
2013-3-2,84.3,74.8,65.9,68.0,66.1,63.0,91,76,50,29.97,29.88,10,2,15,0.00
2013-3-3,87.2,76.5,64.5,74.0,68.1,61.0,88,76,54,30.01,29.89,16,5,21,0.00
2013-3-4,83.6,75.9,70.0,74.0,69.5,67.0,91,81,69,30.08,29.96,17,5,21,0.00
2013-3-5,80.2,75.3,71.4,71.0,68.4,65.0,87,79,68,30.11,30.00,19,5,21,0.00
2013-3-6,84.7,76.3,69.6,70.0,66.9,64.0,86,73,55,30.08,29.99,9,4,16,0.00
2013-3-7,85.8,77.3,69.1,73.0,69.6,66.0,91,78,58,30.07,29.98,13,3,16,0.00
2013-3-8,83.1,76.7,71.1,71.0,67.4,62.0,91,74,52,30.07,29.99,16,5,18,0.00
2013-3-9,81.5,75.7,69.3,70.0,66.5,64.0,85,74,64,30.05,29.97,17,5,19,0.00
2013-3-10,80.9,76.9,73.9,67.0,63.9,61.0,72,64,54,30.04,29.94,15,7,22,0.00
2013-3-11,82.6,75.1,66.9,65.0,62.4,61.0,81,66,50,30.03,29.94,16,5,21,0.00
2013-3-12,82.8,75.5,68.6,65.0,62.3,58.0,82,65,45,30.07,29.97,14,6,22,0.00
2013-3-13,85.2,77.3,71.4,65.0,62.7,57.0,77,62,39,30.05,29.94,14,4,20,0.00
2013-3-14,85.0,78.0,71.2,65.0,62.5,57.0,75,60,38,30.02,29.90,10,4,18,0.00
2013-3-15,82.4,75.7,67.9,66.0,63.6,61.0,83,67,52,30.04,29.93,13,4,18,0.00
2013-3-16,81.3,74.2,69.1,71.0,66.7,63.0,88,78,59,30.07,29.97,17,5,25,0.00
2013-3-17,86.0,76.7,69.2,70.0,68.4,66.0,92,76,54,30.10,30.00,14,4,20,0.01
2013-3-18,82.9,76.3,71.1,71.0,67.8,66.0,84,75,62,30.12,30.00,21,6,28,0.00
2013-3-19,85.6,75.9,72.3,72.0,69.0,66.0,93,80,53,30.04,29.93,16,4,22,0.09
2013-3-20,84.5,76.0,68.5,73.0,70.4,67.0,94,83,60,29.99,29.89,11,4,17,0.12
2013-3-21,85.1,78.1,69.8,74.0,71.5,67.0,94,81,65,29.98,29.85,11,4,17,0.00
2013-3-22,85.1,78.2,71.1,76.0,72.3,68.0,93,82,64,30.05,29.92,10,3,15,0.01
2013-3-23,87.9,79.0,73.9,75.0,72.2,70.0,93,80,60,30.07,29.97,12,3,20,0.44
2013-3-24,87.8,77.7,68.8,74.0,70.3,66.0,93,79,51,30.02,29.88,12,2,18,0.00
2013-3-25,85.0,77.3,68.0,73.0,69.7,66.0,92,79,57,30.01,29.89,10,3,15,0.00
2013-3-26,86.3,78.8,69.6,74.0,71.0,67.0,92,78,60,30.04,29.92,15,3,15,0.00
2013-3-27,85.2,77.9,68.1,75.0,70.5,64.0,89,78,64,30.07,29.95,12,4,18,0.00
2013-3-28,87.7,78.8,71.2,73.0,70.3,68.0,91,76,56,30.05,29.95,15,4,20,0.00
2013-3-29,77.9,73.1,70.2,71.0,69.4,67.0,95,88,78,30.15,30.00,18,6,22,0.29
2013-3-30,77.9,73.7,70.6,72.0,69.3,67.0,90,86,78,30.14,30.05,18,6,22,0.00
2013-3-31,81.6,75.6,72.0,74.0,71.3,69.0,95,87,73,30.13,30.06,14,4,21,0.34
2013-4-1,91.2,79.6,70.9,74.0,70.5,63.0,92,75,40,30.11,29.98,12,4,19,0.00
2013-4-2,85.2,78.8,70.2,75.0,71.5,68.0,91,79,61,30.06,29.98,13,4,15,0.00
2013-4-3,86.5,77.8,70.4,75.0,70.1,67.0,91,78,59,30.07,29.98,11,3,15,0.00
2013-4-4,87.0,76.1,69.8,76.0,70.4,66.0,94,83,51,30.09,30.00,14,2,15,0.49
2013-4-5,84.3,76.1,70.1,75.0,71.2,67.0,91,85,65,30.07,29.95,12,3,13,0.03
2013-4-6,89.1,79.2,68.8,75.0,70.2,66.0,93,76,52,30.05,29.94,30,4,30,0.00
2013-4-7,88.9,79.0,72.8,75.0,71.5,68.0,91,78,52,30.06,29.96,10,3,14,0.00
2013-4-8,88.4,78.6,73.8,77.0,72.6,69.0,92,82,53,30.06,29.95,15,2,17,0.27
2013-4-9,87.2,78.1,71.7,75.0,72.1,69.0,93,82,61,30.07,29.96,13,3,18,0.02
2013-4-10,88.6,78.6,71.8,74.0,71.2,68.0,93,79,53,30.04,29.95,12,3,17,0.01
2013-4-11,87.8,78.8,70.6,72.0,69.6,66.0,90,74,49,30.04,29.94,20,6,25,0.00
2013-4-12,87.7,75.9,67.4,74.0,68.9,63.0,94,80,49,30.03,29.95,9,4,19,1.25
2013-4-13,85.9,77.5,69.7,75.0,71.6,67.0,95,83,59,30.02,29.92,11,2,18,0.00
2013-4-14,86.7,79.2,71.0,76.0,71.8,68.0,90,78,60,30.02,29.94,13,4,15,0.03
2013-4-15,87.7,78.6,69.2,75.0,71.1,66.0,91,78,56,30.06,29.98,15,4,19,0.00
2013-4-16,86.9,77.4,70.2,74.0,70.2,67.0,91,79,54,30.05,29.97,11,4,17,0.00
2013-4-17,88.8,77.9,73.4,73.0,70.3,66.0,86,78,47,30.02,29.93,14,3,24,0.04
2013-4-18,87.3,78.8,72.2,71.0,69.7,68.0,88,74,55,30.05,29.95,18,6,25,0.00
2013-4-19,85.3,79.0,74.1,71.0,69.6,68.0,85,73,56,30.09,29.98,20,7,30,0.00
2013-4-20,86.1,78.4,74.7,73.0,70.4,69.0,87,77,60,30.07,29.97,19,5,21,0.06
2013-4-21,85.9,78.6,72.7,71.0,68.4,65.0,88,72,53,30.07,29.97,17,6,25,0.00
2013-4-22,85.1,77.2,68.7,71.0,67.4,65.0,88,73,54,30.04,29.94,14,4,21,0.00
2013-4-23,86.6,77.3,70.2,72.0,68.5,63.0,87,75,48,30.02,29.92,15,4,21,0.02
2013-4-24,85.9,77.9,73.1,73.0,70.3,68.0,87,78,56,30.02,29.95,15,4,16,0.00
2013-4-25,87.0,77.6,68.5,71.0,68.6,65.0,88,75,54,30.05,29.95,17,5,21,0.00
2013-4-26,83.8,76.0,71.1,71.0,69.4,68.0,90,80,63,30.04,29.98,9,3,17,0.00
2013-4-27,85.2,77.8,70.8,74.0,70.2,67.0,90,78,61,30.02,29.91,15,4,21,0.03
2013-4-28,86.6,76.6,72.7,75.0,71.1,69.0,95,84,60,30.00,29.92,12,4,19,1.08
2013-4-29,88.0,76.9,71.4,75.0,69.6,-99.9,93,81,55,30.00,29.93,15,-8,18,0.25
2013-4-30,88.3,77.3,70.0,76.0,71.2,67.0,93,82,54,30.01,29.95,15,4,16,2.37
2013-5-1,86.9,79.2,72.7,75.0,72.1,69.0,92,79,58,30.00,29.93,11,3,19,0.00
2013-5-2,85.7,79.2,71.2,75.0,71.9,68.0,93,79,66,29.97,29.86,9,3,14,0.00
2013-5-3,87.5,80.6,73.1,75.0,73.3,70.0,90,79,63,29.91,29.83,14,4,19,0.00
2013-5-4,87.4,81.1,72.7,77.0,74.1,69.0,89,80,67,29.88,29.78,16,5,22,0.00
2013-5-5,86.9,81.0,75.3,78.0,74.8,72.0,91,82,68,29.95,29.80,12,3,15,0.00
2013-5-6,88.6,81.2,73.8,77.0,73.8,71.0,92,79,62,30.02,29.91,12,3,14,0.00
2013-5-7,87.7,77.4,72.7,77.0,72.6,70.0,96,86,65,30.09,29.95,12,3,20,1.78
2013-5-8,86.4,76.6,73.1,78.0,73.8,71.0,95,91,69,30.13,30.02,12,2,22,0.76
2013-5-9,87.4,79.4,73.1,78.0,74.1,70.0,96,84,67,30.13,30.03,16,4,23,0.48
2013-5-10,88.1,78.7,73.2,77.0,72.8,69.0,93,82,67,30.09,29.98,12,4,27,0.02
2013-5-11,86.9,79.4,72.7,74.0,70.7,68.0,87,75,59,30.04,29.94,9,5,15,0.00
2013-5-13,89.3,83.9,79.0,78.0,74.5,73.0,84,73,64,30.04,29.96,14,5,17,0.00
2013-5-14,89.0,79.7,74.6,76.0,73.4,71.0,92,82,60,30.04,29.96,11,3,18,0.51
2013-5-15,88.1,77.9,72.9,77.0,73.4,70.0,93,86,68,30.03,29.95,9,2,20,0.20
2013-5-16,88.0,78.4,74.6,77.0,72.8,70.0,93,83,61,30.03,29.94,10,3,14,0.32
2013-5-17,89.0,79.7,71.9,76.0,72.6,69.0,93,79,58,30.08,29.98,15,3,21,0.00
2013-5-18,88.0,80.6,74.3,74.0,72.2,69.0,90,76,55,30.07,30.00,15,5,18,0.00
2013-5-19,87.1,80.6,74.4,75.0,72.1,69.0,86,76,55,30.04,29.97,11,5,14,0.00
2013-5-20,88.5,81.0,73.5,74.0,72.2,70.0,88,75,58,30.04,29.96,14,5,25,0.00
2013-5-21,86.9,79.7,74.9,75.0,72.3,71.0,86,78,64,30.02,29.95,12,4,22,0.02
2013-5-22,86.9,78.3,75.4,75.0,72.7,72.0,92,83,65,30.05,29.94,13,4,20,0.48
2013-5-23,86.7,79.2,73.2,75.0,72.4,71.0,91,80,59,30.07,29.98,13,3,23,0.05
2013-5-24,87.2,79.7,73.4,78.0,73.5,71.0,92,81,63,30.07,29.98,9,3,17,0.29
2013-5-25,86.5,78.3,71.7,77.0,73.8,69.0,94,86,68,30.06,29.98,13,3,25,0.46
2013-5-26,87.7,77.6,72.9,77.0,73.3,71.0,95,87,68,30.08,29.99,13,4,24,1.75
2013-5-27,86.9,78.7,73.1,77.0,74.0,72.0,95,86,68,30.06,29.99,14,4,17,0.94
2013-5-28,86.8,79.4,73.9,78.0,74.2,69.0,94,84,70,30.07,29.98,11,4,16,0.51
2013-5-29,89.8,80.1,74.8,78.0,74.0,72.0,91,82,60,30.07,29.98,20,5,23,0.52
2013-5-30,89.2,79.1,74.8,78.0,73.8,72.0,94,84,61,30.07,30.00,13,4,20,0.81
2013-5-31,88.5,79.3,73.4,77.0,74.2,71.0,94,85,66,30.08,30.00,8,3,16,0.55
2013-6-1,88.5,79.8,74.2,77.0,74.0,72.0,95,83,61,30.07,30.00,13,3,17,0.90
2013-6-2,86.9,79.2,74.5,77.0,73.7,71.0,92,83,65,30.07,30.00,9,3,21,0.32
2013-6-3,89.5,79.9,72.0,79.0,74.0,70.0,93,82,59,30.06,29.98,9,3,15,0.12
2013-6-4,88.9,81.4,75.1,79.0,75.0,73.0,93,81,65,30.07,29.97,9,3,24,0.44
2013-6-5,90.0,81.9,76.6,79.0,74.6,73.0,88,79,61,30.04,29.94,11,3,18,0.01
2013-6-6,88.4,80.9,75.5,77.0,73.6,72.0,88,78,60,30.05,29.96,18,4,19,0.01
2013-6-7,88.1,77.8,72.8,75.0,72.4,70.0,94,84,58,30.05,29.99,9,2,20,0.84
2013-6-8,87.4,78.9,71.2,76.0,72.6,69.0,95,82,64,30.05,29.96,15,4,19,0.00
2013-6-10,86.2,82.1,78.3,77.0,75.1,74.0,86,79,71,30.07,30.01,13,5,20,0.00
2013-6-11,88.4,79.7,76.6,77.0,74.2,73.0,92,83,64,30.08,30.00,10,3,17,0.19
2013-6-12,88.8,78.7,74.6,77.0,74.6,72.0,93,87,66,30.09,30.03,14,3,24,0.50
2013-6-13,89.1,82.2,73.5,78.0,75.9,72.0,94,82,63,30.06,29.97,12,4,18,0.08
2013-6-14,90.2,82.6,75.0,80.0,75.7,72.0,95,80,64,30.03,29.94,8,2,11,0.06
2013-6-15,89.1,82.8,75.8,81.0,76.5,73.0,91,81,66,30.06,29.96,9,2,13,0.00
2013-6-16,89.2,82.3,74.9,79.0,74.9,69.0,91,78,59,30.06,29.98,17,4,23,0.00
2013-6-17,89.8,82.5,77.6,78.0,75.0,73.0,88,78,65,30.08,30.00,18,6,22,0.00
2013-6-18,87.5,81.8,75.5,77.0,74.9,71.0,90,79,62,30.07,29.98,17,5,22,0.00
2013-6-19,87.0,79.1,74.1,76.0,73.2,70.0,92,82,66,30.04,29.96,21,5,25,0.12
2013-6-20,89.2,80.2,71.6,78.0,73.8,69.0,92,81,64,30.07,29.98,18,4,22,0.05
2013-6-21,87.9,80.4,73.3,74.0,72.8,70.0,92,78,62,30.09,30.01,21,6,23,0.00
2013-6-22,87.2,80.1,76.2,74.0,72.7,71.0,87,78,62,30.06,29.98,18,5,20,0.00
2013-6-23,87.7,78.6,75.6,78.0,74.2,72.0,93,86,63,30.07,29.99,9,2,17,0.64
2013-6-24,85.9,77.6,73.3,78.0,74.1,71.0,96,89,75,30.08,30.02,17,3,23,1.72
2013-6-25,88.2,79.5,72.5,78.0,74.2,71.0,96,84,66,30.06,29.99,13,4,22,0.61
2013-6-26,88.5,78.9,74.6,80.0,75.0,73.0,97,88,69,30.04,29.98,9,2,19,1.95
2013-6-27,84.9,77.4,72.6,77.0,74.1,71.0,96,89,74,30.04,29.98,11,2,14,0.03
2013-6-28,90.5,80.7,73.9,79.0,74.2,72.0,94,81,61,30.04,29.96,13,2,14,0.65
2013-6-29,88.5,79.5,71.9,79.0,73.5,70.0,94,82,62,30.02,29.95,12,3,23,0.53
2013-6-30,88.5,77.8,72.6,78.0,74.4,70.0,96,89,65,30.04,29.95,18,2,24,1.86
2013-7-1,88.8,77.2,71.5,78.0,73.1,70.0,96,88,66,30.11,30.00,11,2,24,0.16
2013-7-2,87.1,79.2,72.4,75.0,73.0,70.0,95,82,64,30.12,30.03,15,4,21,0.00
2013-7-3,86.8,80.8,75.8,75.0,73.4,71.0,89,78,63,30.08,30.01,19,6,25,0.00
2013-7-4,89.2,79.5,76.4,78.0,74.3,73.0,92,84,62,30.08,30.01,11,3,18,0.10
2013-7-5,88.2,81.3,74.0,76.0,74.0,71.0,96,79,58,30.08,30.00,17,5,21,0.00
2013-7-6,86.7,80.5,75.9,76.0,73.7,72.0,89,80,62,30.05,29.94,15,6,29,0.18
2013-7-7,89.6,79.9,72.4,79.0,74.5,70.0,94,84,65,30.03,29.93,18,3,21,0.47
2013-7-8,89.9,81.0,75.0,79.0,75.6,72.0,92,84,65,30.10,29.97,14,3,17,0.21
2013-7-9,88.0,82.3,76.6,78.0,75.8,73.0,91,81,71,30.09,30.00,15,6,23,0.00
2013-7-10,89.6,82.7,77.6,79.0,75.9,71.0,91,80,62,30.07,29.97,9,2,14,0.00
2013-7-11,89.2,82.0,75.8,77.0,74.9,73.0,92,79,61,30.07,29.98,11,3,17,0.00
2013-7-12,88.7,81.6,75.6,76.0,74.1,73.0,92,78,60,30.03,29.95,16,5,21,0.00
2013-7-13,87.6,79.6,74.8,75.0,72.6,71.0,90,80,61,30.02,29.96,17,6,22,0.00
2013-7-14,87.5,77.9,73.7,75.0,72.5,70.0,94,84,61,30.01,29.94,12,3,22,0.46
2013-7-15,87.3,78.7,71.6,78.0,73.7,69.0,94,85,62,30.04,29.96,8,2,18,0.07
2013-7-16,91.1,80.4,73.3,78.0,74.6,71.0,95,83,60,30.07,30.00,16,2,20,1.40
2013-7-17,88.8,82.1,75.9,78.0,75.3,72.0,94,80,61,30.08,30.00,18,5,23,0.04
2013-7-18,82.1,78.2,74.3,78.0,74.7,71.0,93,89,81,30.08,29.98,12,2,15,0.10
2013-7-19,90.3,81.5,72.8,78.0,74.3,71.0,94,79,58,30.11,30.03,17,4,20,0.00
2013-7-20,88.8,82.1,74.4,77.0,75.2,73.0,94,80,63,30.10,30.02,16,4,22,0.03
2013-7-21,88.4,82.0,76.4,76.0,74.4,70.0,90,78,66,30.07,29.98,18,7,26,0.01
2013-7-22,85.6,79.9,75.2,77.0,74.9,72.0,91,84,71,30.10,30.01,15,4,24,0.04
2013-7-23,91.3,82.8,75.6,78.0,75.9,74.0,95,80,60,30.07,29.96,14,3,16,0.00
2013-7-24,90.8,84.5,80.6,79.0,73.4,-99.9,86,73,59,30.03,0.00,11,-14,17,0.00
2013-7-25,91.5,81.7,76.9,77.0,75.2,73.0,92,81,56,30.09,29.99,11,3,17,0.05
2013-7-26,88.7,79.1,73.4,80.0,74.3,71.0,93,86,61,30.09,30.02,16,3,22,0.46
2013-7-27,88.7,78.8,72.7,77.0,74.2,70.0,95,86,63,30.06,29.98,11,2,16,0.64
2013-7-28,89.5,80.1,72.3,78.0,74.2,71.0,97,83,57,30.05,29.97,14,3,18,0.02
2013-7-29,88.2,80.9,74.2,78.0,75.0,72.0,93,83,66,30.09,29.98,13,3,18,0.00
2013-7-30,91.1,80.8,71.8,78.0,73.8,69.0,92,80,65,30.11,30.00,12,3,16,0.00
2013-7-31,89.3,81.1,75.6,77.0,74.7,73.0,92,81,63,30.06,29.97,10,3,18,0.08
2013-8-1,88.7,79.0,72.2,78.0,74.3,70.0,95,86,63,30.07,29.97,10,2,17,0.89
2013-8-2,92.3,78.3,73.6,79.0,67.5,-99.9,95,78,58,30.11,30.01,13,-42,15,0.01
2013-8-3,89.3,82.8,75.5,80.0,76.9,74.0,94,82,69,30.11,30.01,14,4,19,0.00
2013-8-4,89.8,83.7,78.4,79.0,77.2,76.0,93,81,68,30.08,29.96,9,3,16,0.01
2013-8-5,90.3,81.5,75.4,77.0,75.1,72.0,92,81,58,30.03,29.94,12,3,20,0.37
2013-8-6,90.2,78.9,74.3,77.0,73.6,72.0,93,84,57,30.00,29.93,8,3,19,0.92
2013-8-7,89.5,79.3,72.6,79.0,74.5,70.0,94,86,62,29.99,29.90,13,3,22,0.43
2013-8-8,92.0,82.5,74.4,77.0,75.1,72.0,96,80,53,29.97,29.86,12,4,23,0.02
2013-8-9,90.3,80.6,74.1,78.0,74.8,71.0,93,83,64,30.01,29.91,16,4,23,0.69
2013-8-10,90.4,82.7,76.1,78.0,76.0,74.0,93,80,64,30.02,29.92,14,4,22,0.00
2013-8-11,89.7,80.0,75.1,76.0,74.0,70.0,94,82,58,30.02,29.94,11,3,19,0.02
2013-8-12,89.6,79.6,73.8,76.0,72.6,69.0,91,79,59,30.03,29.95,14,3,24,0.00
2013-8-13,90.2,79.7,75.1,78.0,74.4,72.0,96,84,59,30.04,29.94,12,3,20,0.33
2013-8-14,92.0,81.6,73.5,82.0,75.7,72.0,95,83,61,30.04,29.94,9,3,13,0.09
2013-8-15,90.8,82.8,75.2,78.0,75.0,73.0,91,78,58,30.05,29.94,14,5,22,0.01
2013-8-16,87.2,80.9,75.7,77.0,75.3,73.0,93,83,69,30.00,29.92,19,4,21,0.04
2013-8-17,89.8,82.0,74.2,79.0,75.7,72.0,94,82,60,29.99,29.90,10,2,15,0.19
2013-8-18,89.3,81.6,76.1,79.0,75.3,73.0,90,81,69,30.01,29.93,19,3,23,0.00
2013-8-19,90.7,81.2,77.4,78.0,75.4,74.0,94,83,61,29.97,29.89,13,3,18,0.96
2013-8-20,91.5,82.1,76.2,78.0,74.4,72.0,94,78,53,30.03,29.89,12,3,21,0.04
2013-8-21,91.8,83.1,76.6,78.0,74.7,73.0,88,76,63,30.02,29.94,17,4,20,0.00
2013-8-22,89.2,81.3,76.0,75.0,73.8,72.0,91,79,57,30.02,29.92,13,4,18,0.00
2013-8-23,91.2,78.6,72.6,79.0,73.8,67.0,94,85,67,30.01,29.92,10,2,28,1.14
2013-8-24,89.8,82.3,74.4,77.0,75.0,72.0,95,79,61,30.04,29.97,17,5,26,0.01
2013-8-25,89.3,82.6,77.3,77.0,75.2,74.0,89,79,64,30.04,29.96,18,5,27,0.00
2013-8-26,90.2,81.5,75.8,79.0,76.1,74.0,94,84,61,30.00,29.90,10,2,19,0.57
2013-8-27,88.1,82.0,77.2,80.0,76.7,75.0,94,84,70,30.01,29.91,8,2,13,0.01
2013-8-28,91.6,80.3,73.2,78.0,74.4,71.0,92,83,56,30.04,29.95,11,3,23,0.21
2013-8-29,89.8,78.7,73.9,77.0,74.5,72.0,96,87,63,30.03,29.95,15,3,20,0.93
2013-8-30,88.9,80.8,72.5,79.0,75.5,71.0,96,84,65,30.02,29.94,12,2,17,0.02
2013-8-31,92.0,80.3,75.1,79.0,75.0,72.0,94,85,57,30.01,29.92,19,3,38,0.87
2013-9-1,90.4,82.4,75.1,79.0,76.4,73.0,94,82,65,29.99,29.90,15,4,20,0.00
2013-9-2,88.9,81.1,75.0,77.0,75.1,73.0,95,83,62,29.97,29.89,14,3,17,0.02
2013-9-3,89.2,80.9,75.0,77.0,74.4,72.0,90,81,65,29.94,29.86,19,4,22,0.00
2013-9-4,86.9,80.5,75.3,79.0,75.5,73.0,94,85,73,29.95,29.86,20,4,25,0.06
2013-9-5,88.4,80.2,75.3,78.0,75.3,72.0,95,85,68,29.95,29.85,11,3,25,0.63
2013-9-6,89.1,80.8,75.2,78.0,75.0,73.0,94,83,65,29.96,29.86,11,2,16,0.01
2013-9-7,88.8,80.7,74.7,77.0,74.8,72.0,94,83,63,30.00,29.87,13,3,23,0.02
2013-9-8,90.7,80.9,74.3,77.0,73.6,70.0,91,79,62,29.99,29.86,17,4,23,0.00
2013-9-9,91.0,81.3,75.8,79.0,74.5,71.0,91,80,64,30.00,29.90,13,3,14,0.14
2013-9-10,90.6,80.3,73.3,77.0,73.2,69.0,92,79,59,30.03,29.95,17,4,20,0.00
2013-9-11,88.7,80.6,71.9,76.0,73.5,69.0,92,79,62,30.01,29.93,14,4,22,0.00
2013-9-12,86.2,79.4,75.7,79.0,75.4,74.0,94,87,77,29.94,29.82,8,3,18,0.03
2013-9-13,90.3,81.7,74.4,77.0,74.6,73.0,95,80,58,29.86,29.76,12,4,17,0.00
2013-9-14,88.9,80.5,74.8,77.0,74.6,71.0,92,83,57,29.96,29.82,14,2,17,0.55
2013-9-15,91.2,82.0,73.2,79.0,76.0,71.0,93,83,59,30.00,29.91,9,2,13,0.00
2013-9-16,91.0,81.5,76.0,79.0,75.3,72.0,93,82,63,30.00,29.90,11,3,19,0.01
2013-9-17,92.7,81.6,76.1,79.0,76.3,73.0,94,84,57,29.98,29.88,9,2,16,0.18
2013-9-18,90.3,80.7,74.3,79.0,75.9,72.0,95,86,64,29.97,29.88,12,2,13,0.05
2013-9-19,89.2,81.6,75.1,80.0,76.6,73.0,94,85,69,29.98,29.91,9,2,12,0.51
2013-9-20,90.5,83.2,76.0,80.0,77.0,74.0,95,82,66,29.97,29.85,14,4,20,0.00
2013-9-21,90.8,81.5,77.0,79.0,75.9,74.0,92,84,65,29.92,29.84,13,3,17,0.14
2013-9-22,90.3,82.6,74.5,79.0,76.2,72.0,92,81,64,29.97,29.88,12,3,14,0.00
2013-9-23,91.1,81.5,74.8,79.0,75.1,72.0,93,82,57,30.04,29.94,10,3,12,0.19
2013-9-24,89.9,80.1,74.7,79.0,75.2,72.0,96,86,60,30.01,29.91,7,2,12,0.91
2013-9-25,90.4,80.2,72.0,79.0,74.8,71.0,96,84,60,29.97,29.87,12,2,14,0.05
2013-9-26,89.1,79.9,73.7,77.0,74.2,72.0,95,84,64,29.94,29.89,10,2,13,0.00
2013-9-27,89.8,85.6,78.5,77.0,75.8,74.0,88,73,60,29.96,29.85,9,3,12,0.00
2013-9-28,91.3,82.5,75.2,78.0,75.1,71.0,92,79,53,29.98,29.87,11,3,15,0.00
2013-9-29,90.9,82.4,73.6,80.0,75.3,70.0,90,80,60,29.99,29.87,12,3,14,0.00
2013-9-30,92.7,82.9,76.6,80.0,76.2,72.0,95,81,59,30.02,29.93,10,2,13,0.09
2013-10-1,92.1,81.5,76.2,79.0,71.9,-99.9,90,76,59,30.03,29.92,16,-14,24,0.05
2013-10-2,90.4,79.9,75.1,77.0,75.0,73.0,95,86,60,29.98,29.88,14,3,21,0.45
2013-10-3,90.0,79.7,73.5,79.0,75.2,72.0,95,86,65,29.99,29.89,15,3,23,0.31
2013-10-4,89.1,78.3,73.2,79.0,74.0,71.0,95,87,64,30.00,29.89,11,3,13,0.42
2013-10-5,88.2,78.8,73.3,76.0,73.6,72.0,96,85,64,29.98,29.88,12,3,20,0.46
2013-10-6,88.2,79.4,72.6,77.0,74.3,71.0,96,85,66,29.97,29.87,9,3,19,0.22
2013-10-7,89.5,80.0,73.8,80.0,75.6,72.0,95,87,64,29.98,29.89,8,2,11,0.65
2013-10-8,88.2,79.3,73.9,79.0,75.9,72.0,96,90,71,30.01,29.92,6,2,9,0.49
2013-10-9,88.1,78.8,73.7,76.0,74.2,72.0,96,86,66,30.00,29.93,10,2,12,0.01
2013-10-10,88.6,79.0,72.8,75.0,72.5,69.0,96,81,52,29.98,29.90,11,3,23,0.00
2013-10-11,89.2,78.6,72.1,77.0,73.4,70.0,94,85,62,29.96,29.89,10,2,12,0.01
2013-10-12,90.6,80.5,76.5,78.0,75.5,73.0,95,86,58,29.94,29.87,10,3,14,1.62
2013-10-13,89.7,79.1,75.1,79.0,75.5,74.0,96,89,63,29.96,29.87,8,2,17,0.97
2013-10-14,89.0,79.4,73.0,78.0,74.2,72.0,96,85,63,29.94,29.87,7,2,11,0.01
2013-10-15,88.5,88.5,88.5,78.0,78.0,78.0,70,70,70,29.88,29.88,6,6,9,0.00
2013-10-16,88.4,82.1,76.7,77.0,74.5,73.0,89,78,66,29.95,29.87,8,3,12,0.00
2013-10-17,87.9,80.3,73.3,76.0,73.6,71.0,92,81,63,29.99,29.88,9,2,12,0.00
2013-10-18,87.1,78.6,74.0,76.0,73.6,72.0,93,85,66,29.96,29.89,7,2,10,0.00
2013-10-19,88.0,79.3,74.4,78.0,74.0,71.0,94,84,68,29.96,29.88,12,4,16,0.21
2013-10-20,88.5,79.5,72.4,77.0,73.6,70.0,94,83,62,29.97,29.88,9,2,13,0.00
2013-10-21,89.3,79.6,74.5,79.0,74.4,72.0,94,84,65,29.98,29.90,11,3,26,0.05
2013-10-22,89.4,79.7,73.8,78.0,74.2,72.0,94,84,63,29.99,29.89,13,2,13,0.21
2013-10-23,91.1,79.8,71.8,77.0,72.9,69.0,93,80,49,29.98,29.87,10,2,18,0.83
2013-10-24,91.1,81.5,76.0,77.0,75.3,73.0,93,82,61,30.00,29.93,11,2,14,0.01
2013-10-25,90.9,81.8,74.5,77.0,74.1,72.0,93,79,55,30.05,29.94,8,2,14,0.00
2013-10-26,91.0,77.8,72.1,78.0,73.3,70.0,96,87,59,30.02,29.90,13,2,19,2.09
2013-10-27,88.0,77.7,71.4,77.0,73.6,70.0,97,88,63,30.01,29.92,12,2,21,0.34
2013-10-28,91.9,79.7,71.8,78.0,73.6,69.0,94,83,50,30.02,29.93,10,3,15,0.08
2013-10-29,87.2,79.1,76.8,80.0,75.9,74.0,96,90,74,30.01,29.89,8,2,13,0.62
2013-10-30,88.0,81.1,75.1,77.0,75.2,74.0,96,83,65,30.01,29.89,11,4,17,0.01
2013-10-31,89.0,82.8,76.1,77.0,74.4,71.0,92,76,61,29.95,29.84,22,6,23,0.00
2013-11-1,86.1,77.9,75.0,77.0,73.3,72.0,95,86,64,29.93,29.83,7,2,11,0.20
2013-11-2,87.7,79.8,72.6,77.0,74.2,71.0,94,83,66,29.94,29.83,11,2,15,0.00
2013-11-3,85.5,77.9,74.4,76.0,73.5,71.0,94,86,71,29.91,29.85,12,3,34,0.02
2013-11-4,82.8,76.8,72.3,76.0,73.3,71.0,95,89,72,29.93,29.85,4,1,8,0.06
2013-11-5,86.6,78.6,73.1,76.0,73.2,71.0,94,84,66,29.93,29.83,8,2,12,0.00
2013-11-6,86.7,77.5,72.5,76.0,73.0,70.0,94,86,68,29.93,29.85,9,3,13,0.28
2013-11-7,88.7,77.4,70.1,77.0,72.1,69.0,95,85,61,29.94,29.86,8,2,13,0.06
2013-11-8,86.9,77.9,70.5,76.0,72.7,69.0,95,85,63,29.97,29.87,10,2,14,0.10
2013-11-9,88.6,78.4,73.2,80.0,74.2,71.0,94,87,63,30.00,29.91,10,3,16,0.18
2013-11-10,89.0,77.7,72.8,76.0,73.5,72.0,96,88,59,30.02,29.92,11,3,19,0.81
2013-11-11,89.1,77.4,71.1,77.0,73.0,70.0,96,87,61,30.04,29.95,17,3,30,1.23
2013-11-12,87.5,77.5,73.9,78.0,74.3,72.0,96,90,71,30.02,29.89,11,2,18,0.92
2013-11-13,89.8,79.1,70.4,78.0,74.0,69.0,97,85,62,30.00,29.89,9,2,11,0.01
2013-11-14,88.6,78.5,71.1,76.0,72.7,68.0,92,83,60,30.04,29.91,9,3,15,0.07
2013-11-15,87.8,77.9,73.6,79.0,74.7,72.0,97,90,66,30.02,29.89,9,2,17,1.46
2013-11-16,86.4,80.1,74.9,76.0,74.2,73.0,97,83,66,29.98,29.88,11,2,16,0.00
2013-11-17,85.2,80.1,75.7,74.0,72.0,69.0,92,77,59,29.92,29.82,17,6,21,0.00
2013-11-18,84.7,78.4,73.5,75.0,71.5,69.0,95,80,59,29.88,29.77,12,4,18,0.09
2013-11-19,86.3,77.8,71.8,72.0,70.5,69.0,94,79,59,29.93,29.80,11,4,15,0.00
2013-11-20,85.9,76.9,73.2,73.0,70.3,69.0,88,80,62,30.01,29.89,7,3,13,0.00
2013-11-21,85.9,81.0,74.9,74.0,73.0,71.0,88,77,64,30.04,29.94,15,6,18,0.00
2013-11-22,83.3,78.1,74.9,74.0,72.5,71.0,93,83,70,30.02,29.90,12,4,16,0.06
2013-11-23,85.9,78.5,72.2,73.0,71.5,70.0,92,79,61,29.96,29.86,10,4,16,0.00
2013-11-24,87.7,76.9,69.3,75.0,70.3,65.0,94,81,58,29.98,29.88,18,3,22,0.50
2013-11-25,87.1,77.5,69.4,76.0,72.4,68.0,95,85,66,30.01,29.94,9,2,17,0.05
2013-11-26,85.9,79.2,73.0,74.0,72.2,70.0,92,80,65,30.04,29.92,16,5,22,0.00
2013-11-27,87.7,78.5,72.1,72.0,70.6,68.0,94,78,54,29.99,29.87,17,4,18,0.00
2013-11-28,87.1,79.7,74.4,74.0,72.2,71.0,88,78,61,30.03,29.92,13,4,19,0.00
2013-11-29,82.9,77.5,74.5,73.0,70.6,67.0,89,79,61,30.04,29.94,20,5,23,0.01
2013-11-30,82.7,76.3,72.5,73.0,71.5,70.0,95,85,69,30.01,29.90,13,4,18,0.20
2013-12-1,83.7,76.8,70.5,74.0,71.4,68.0,93,84,71,29.95,29.87,9,3,12,0.00
2013-12-2,87.2,78.3,70.8,76.0,72.6,69.0,94,83,65,29.93,29.84,8,2,13,0.00
2013-12-3,89.4,79.1,75.1,77.0,68.2,-99.9,91,75,63,30.00,29.94,14,-33,14,0.00
2013-12-4,74.7,74.5,74.3,73.0,72.1,71.0,94,91,89,30.03,30.01,6,2,10,1.04
2013-12-5,83.7,76.2,72.9,74.0,72.0,70.0,95,87,67,30.07,29.97,14,4,24,0.03
2013-12-6,84.7,77.3,71.5,74.0,71.3,69.0,94,82,64,30.06,29.96,16,4,20,0.00
2013-12-7,82.8,75.9,70.1,73.0,70.8,68.0,94,84,68,30.09,29.98,17,4,26,0.02
2013-12-8,81.8,75.6,72.0,72.0,70.1,68.0,92,83,66,30.09,29.99,19,5,22,0.07
2013-12-9,85.5,79.2,74.8,72.0,70.9,70.0,88,76,61,30.11,30.01,18,7,29,0.00
2013-12-10,87.7,79.3,72.3,75.0,71.6,67.0,92,78,52,30.11,30.00,14,3,24,0.00
2013-12-11,80.8,75.0,73.3,74.0,71.4,70.0,91,88,80,30.13,30.04,12,2,17,0.00
2013-12-12,87.4,81.0,72.2,75.0,72.8,69.0,94,76,57,30.09,29.96,8,3,14,0.00
2013-12-13,86.6,78.0,70.6,74.0,70.5,67.0,91,78,61,30.07,29.95,15,4,20,0.00
2013-12-14,86.3,77.1,67.7,75.0,70.4,64.0,90,80,62,30.09,29.98,17,4,21,0.00
2013-12-15,84.8,75.6,67.5,76.0,70.5,65.0,93,84,64,30.12,30.00,11,2,19,0.04
2013-12-16,85.2,76.6,71.8,76.0,70.8,-99.9,96,84,70,30.10,29.97,8,-9,17,0.02
2013-12-17,86.3,78.4,70.6,74.0,71.4,68.0,92,79,60,30.10,29.96,13,4,17,0.00
2013-12-18,87.2,78.1,71.4,74.0,70.3,68.0,90,77,58,30.08,29.98,14,4,23,0.00
2013-12-19,85.7,77.4,71.5,75.0,71.7,69.0,94,83,66,30.09,29.99,17,5,25,0.05
2013-12-20,83.3,76.8,73.5,75.0,71.8,69.0,92,85,69,30.08,29.99,15,5,21,0.02
2013-12-21,82.3,76.1,71.1,75.0,71.0,67.0,91,84,71,30.08,29.99,16,4,21,0.17
2013-12-22,83.5,76.3,72.8,73.0,70.6,69.0,89,83,63,30.11,30.03,17,4,30,0.04
2013-12-23,84.1,76.5,70.9,73.0,70.2,68.0,92,81,65,30.09,29.99,15,5,24,0.00
2013-12-24,82.2,74.6,69.9,72.0,69.2,66.0,92,83,65,30.01,29.89,13,3,15,0.03
2013-12-25,82.8,75.5,68.8,71.0,68.9,66.0,93,81,62,30.02,29.88,8,2,12,0.00
2013-12-26,87.5,76.1,68.0,73.0,69.1,66.0,92,80,53,30.11,29.97,11,3,17,0.00
2013-12-27,85.9,76.0,69.5,75.0,70.4,67.0,93,83,64,30.12,30.03,11,2,16,0.00
2013-12-28,85.6,77.4,69.3,73.0,71.2,67.0,93,82,64,30.10,30.01,14,4,18,0.00
2013-12-29,86.9,77.5,71.1,74.0,71.3,69.0,93,82,59,30.07,29.96,10,2,17,0.08
2013-12-30,84.9,77.4,71.0,74.0,70.8,67.0,93,81,66,30.11,30.01,17,5,22,0.00
2013-12-31,85.8,77.6,69.5,72.0,70.5,68.0,94,79,62,30.13,30.02,14,5,22,0.00
2014-1-1,83.0,76.1,71.9,73.0,70.6,68.0,93,83,68,30.13,30.01,17,6,26,0.03
2014-1-2,82.4,74.5,71.1,72.0,70.2,69.0,92,86,68,30.06,29.99,10,2,17,0.00